<?xml version="1.0" encoding="UTF-8" standalone="no" ?>
<gpx xmlns="http://www.topografix.com/GPX/1/1" xmlns:xsi="http://www.w3.org/2001/XMLSchema-instance" xsi:schemaLocation="http://www.topografix.com/GPX/1/1 http://www.topografix.com/GPX/1/1/gpx.xsd" version="1.1" creator="VisuGPX - https://www.visugpx.com">
  <metadata>
    <name>Tour de France 2019</name>
    <desc><![CDATA[4272km en 2 mois en tandem avec notre petit chien dans le panier avant]]></desc>
  </metadata>
  <trk>
    <name><![CDATA[Tracé 20191103-093812]]></name>
    <trkseg>
      <trkpt lat="45.60116" lon="-0.04644">
        <ele>5.914</ele>
        <time>2019-11-03T08:38:39Z</time>
      </trkpt>
      <trkpt lat="45.60075" lon="-0.04711">
        <ele>16.261</ele>
        <time>2019-11-03T08:54:07Z</time>
      </trkpt>
      <trkpt lat="45.60087" lon="-0.0486">
        <ele>17.361</ele>
        <time>2019-11-03T08:54:46Z</time>
      </trkpt>
      <trkpt lat="45.6014" lon="-0.05013">
        <ele>19.877</ele>
        <time>2019-11-03T08:55:19Z</time>
      </trkpt>
      <trkpt lat="45.6025" lon="-0.05008">
        <ele>17.307</ele>
        <time>2019-11-03T08:55:52Z</time>
      </trkpt>
      <trkpt lat="45.60421" lon="-0.04956">
        <ele>19.606</ele>
        <time>2019-11-03T08:56:28Z</time>
      </trkpt>
      <trkpt lat="45.6056" lon="-0.04852">
        <ele>18.225</ele>
        <time>2019-11-03T08:57:01Z</time>
      </trkpt>
      <trkpt lat="45.60696" lon="-0.0475">
        <ele>22.247</ele>
        <time>2019-11-03T08:57:37Z</time>
      </trkpt>
      <trkpt lat="45.60816" lon="-0.04673">
        <ele>25.203</ele>
        <time>2019-11-03T08:58:10Z</time>
      </trkpt>
      <trkpt lat="45.60954" lon="-0.04632">
        <ele>24.315</ele>
        <time>2019-11-03T08:58:46Z</time>
      </trkpt>
      <trkpt lat="45.61074" lon="-0.04702">
        <ele>25.515</ele>
        <time>2019-11-03T08:59:19Z</time>
      </trkpt>
      <trkpt lat="45.6124" lon="-0.04785">
        <ele>21.518</ele>
        <time>2019-11-03T08:59:52Z</time>
      </trkpt>
      <trkpt lat="45.61429" lon="-0.04821">
        <ele>23.817</ele>
        <time>2019-11-03T09:00:28Z</time>
      </trkpt>
      <trkpt lat="45.61589" lon="-0.049">
        <ele>20.44</ele>
        <time>2019-11-03T09:01:01Z</time>
      </trkpt>
      <trkpt lat="45.61746" lon="-0.04987">
        <ele>18.396</ele>
        <time>2019-11-03T09:01:37Z</time>
      </trkpt>
      <trkpt lat="45.61908" lon="-0.05009">
        <ele>17.997</ele>
        <time>2019-11-03T09:02:10Z</time>
      </trkpt>
      <trkpt lat="45.62068" lon="-0.04999">
        <ele>18.763</ele>
        <time>2019-11-03T09:02:46Z</time>
      </trkpt>
      <trkpt lat="45.622" lon="-0.0499">
        <ele>17.707</ele>
        <time>2019-11-03T09:03:19Z</time>
      </trkpt>
      <trkpt lat="45.62339" lon="-0.04983">
        <ele>19.019</ele>
        <time>2019-11-03T09:03:52Z</time>
      </trkpt>
      <trkpt lat="45.62476" lon="-0.04996">
        <ele>18.431</ele>
        <time>2019-11-03T09:04:28Z</time>
      </trkpt>
      <trkpt lat="45.6258" lon="-0.05046">
        <ele>22.218</ele>
        <time>2019-11-03T09:05:01Z</time>
      </trkpt>
      <trkpt lat="45.62688" lon="-0.05095">
        <ele>21.327</ele>
        <time>2019-11-03T09:05:37Z</time>
      </trkpt>
      <trkpt lat="45.62785" lon="-0.05214">
        <ele>20.272</ele>
        <time>2019-11-03T09:06:10Z</time>
      </trkpt>
      <trkpt lat="45.6288" lon="-0.05364">
        <ele>21.218</ele>
        <time>2019-11-03T09:06:46Z</time>
      </trkpt>
      <trkpt lat="45.62981" lon="-0.0551">
        <ele>19.329</ele>
        <time>2019-11-03T09:07:19Z</time>
      </trkpt>
      <trkpt lat="45.63093" lon="-0.05593">
        <ele>18.84</ele>
        <time>2019-11-03T09:07:52Z</time>
      </trkpt>
      <trkpt lat="45.63199" lon="-0.05568">
        <ele>20.257</ele>
        <time>2019-11-03T09:08:28Z</time>
      </trkpt>
      <trkpt lat="45.63283" lon="-0.05475">
        <ele>27.09</ele>
        <time>2019-11-03T09:09:01Z</time>
      </trkpt>
      <trkpt lat="45.63368" lon="-0.05536">
        <ele>26.531</ele>
        <time>2019-11-03T09:09:37Z</time>
      </trkpt>
      <trkpt lat="45.63455" lon="-0.0562">
        <ele>28.882</ele>
        <time>2019-11-03T09:10:10Z</time>
      </trkpt>
      <trkpt lat="45.63576" lon="-0.05706">
        <ele>25.306</ele>
        <time>2019-11-03T09:10:46Z</time>
      </trkpt>
      <trkpt lat="45.63682" lon="-0.05774">
        <ele>24.123</ele>
        <time>2019-11-03T09:11:19Z</time>
      </trkpt>
      <trkpt lat="45.63824" lon="-0.05856">
        <ele>20.716</ele>
        <time>2019-11-03T09:11:52Z</time>
      </trkpt>
      <trkpt lat="45.63982" lon="-0.05911">
        <ele>19.92</ele>
        <time>2019-11-03T09:12:28.001Z</time>
      </trkpt>
      <trkpt lat="45.64064" lon="-0.06088">
        <ele>15.602</ele>
        <time>2019-11-03T09:13:01.001Z</time>
      </trkpt>
      <trkpt lat="45.63978" lon="-0.06276">
        <ele>15.169</ele>
        <time>2019-11-03T09:13:37.001Z</time>
      </trkpt>
      <trkpt lat="45.63841" lon="-0.06292">
        <ele>14.715</ele>
        <time>2019-11-03T09:14:10.001Z</time>
      </trkpt>
      <trkpt lat="45.63657" lon="-0.06291">
        <ele>13.97</ele>
        <time>2019-11-03T09:14:46.001Z</time>
      </trkpt>
      <trkpt lat="45.63558" lon="-0.06269">
        <ele>23.354</ele>
        <time>2019-11-03T09:15:19.001Z</time>
      </trkpt>
      <trkpt lat="45.63424" lon="-0.06198">
        <ele>14.997</ele>
        <time>2019-11-03T09:15:52.001Z</time>
      </trkpt>
      <trkpt lat="45.63317" lon="-0.06383">
        <ele>14.358</ele>
        <time>2019-11-03T09:16:28.001Z</time>
      </trkpt>
      <trkpt lat="45.6325" lon="-0.06552">
        <ele>15.516</ele>
        <time>2019-11-03T09:17:01.001Z</time>
      </trkpt>
      <trkpt lat="45.63198" lon="-0.06738">
        <ele>15.426</ele>
        <time>2019-11-03T09:17:37.001Z</time>
      </trkpt>
      <trkpt lat="45.63157" lon="-0.06905">
        <ele>15.932</ele>
        <time>2019-11-03T09:18:10.001Z</time>
      </trkpt>
      <trkpt lat="45.63111" lon="-0.07122">
        <ele>16.832</ele>
        <time>2019-11-03T09:18:46.001Z</time>
      </trkpt>
      <trkpt lat="45.63089" lon="-0.07315">
        <ele>17.526</ele>
        <time>2019-11-03T09:19:19.001Z</time>
      </trkpt>
      <trkpt lat="45.63085" lon="-0.07437">
        <ele>20.79</ele>
        <time>2019-11-03T09:19:52.001Z</time>
      </trkpt>
      <trkpt lat="45.63157" lon="-0.07509">
        <ele>20.561</ele>
        <time>2019-11-03T09:20:28.001Z</time>
      </trkpt>
      <trkpt lat="45.63305" lon="-0.07505">
        <ele>20.504</ele>
        <time>2019-11-03T09:21:01.001Z</time>
      </trkpt>
      <trkpt lat="45.63456" lon="-0.0743">
        <ele>22.08</ele>
        <time>2019-11-03T09:21:37.001Z</time>
      </trkpt>
      <trkpt lat="45.63592" lon="-0.07396">
        <ele>16.856</ele>
        <time>2019-11-03T09:22:10.001Z</time>
      </trkpt>
      <trkpt lat="45.63728" lon="-0.07499">
        <ele>15.151</ele>
        <time>2019-11-03T09:22:46.001Z</time>
      </trkpt>
      <trkpt lat="45.63829" lon="-0.07626">
        <ele>17.58</ele>
        <time>2019-11-03T09:23:19.001Z</time>
      </trkpt>
      <trkpt lat="45.63925" lon="-0.07737">
        <ele>16.675</ele>
        <time>2019-11-03T09:23:52.001Z</time>
      </trkpt>
      <trkpt lat="45.64015" lon="-0.07876">
        <ele>14.562</ele>
        <time>2019-11-03T09:24:28.001Z</time>
      </trkpt>
      <trkpt lat="45.64066" lon="-0.08056">
        <ele>12.881</ele>
        <time>2019-11-03T09:25:01.001Z</time>
      </trkpt>
      <trkpt lat="45.6406" lon="-0.08182">
        <ele>18.405</ele>
        <time>2019-11-03T09:25:37.001Z</time>
      </trkpt>
      <trkpt lat="45.6397" lon="-0.08286">
        <ele>18.522</ele>
        <time>2019-11-03T09:26:10.001Z</time>
      </trkpt>
      <trkpt lat="45.64044" lon="-0.08407">
        <ele>16.397</ele>
        <time>2019-11-03T09:26:46.001Z</time>
      </trkpt>
      <trkpt lat="45.64075" lon="-0.08558">
        <ele>16.082</ele>
        <time>2019-11-03T09:27:19.001Z</time>
      </trkpt>
      <trkpt lat="45.6413" lon="-0.087">
        <ele>15.961</ele>
        <time>2019-11-03T09:27:52.001Z</time>
      </trkpt>
      <trkpt lat="45.64218" lon="-0.08796">
        <ele>15.648</ele>
        <time>2019-11-03T09:28:28.001Z</time>
      </trkpt>
      <trkpt lat="45.64274" lon="-0.08928">
        <ele>16.146</ele>
        <time>2019-11-03T09:29:01.001Z</time>
      </trkpt>
      <trkpt lat="45.64328" lon="-0.09082">
        <ele>16.682</ele>
        <time>2019-11-03T09:29:37.001Z</time>
      </trkpt>
      <trkpt lat="45.64378" lon="-0.09286">
        <ele>18.397</ele>
        <time>2019-11-03T09:30:10.001Z</time>
      </trkpt>
      <trkpt lat="45.6443" lon="-0.0939">
        <ele>22.388</ele>
        <time>2019-11-03T09:30:46.001Z</time>
      </trkpt>
      <trkpt lat="45.64494" lon="-0.0951">
        <ele>24.288</ele>
        <time>2019-11-03T09:31:19.001Z</time>
      </trkpt>
      <trkpt lat="45.64574" lon="-0.0965">
        <ele>21.358</ele>
        <time>2019-11-03T09:31:52.001Z</time>
      </trkpt>
      <trkpt lat="45.64663" lon="-0.09846">
        <ele>14.642</ele>
        <time>2019-11-03T09:32:28.001Z</time>
      </trkpt>
      <trkpt lat="45.64731" lon="-0.10002">
        <ele>13.825</ele>
        <time>2019-11-03T09:33:01.001Z</time>
      </trkpt>
      <trkpt lat="45.64802" lon="-0.10142">
        <ele>12.941</ele>
        <time>2019-11-03T09:33:37.001Z</time>
      </trkpt>
      <trkpt lat="45.64838" lon="-0.10286">
        <ele>20.504</ele>
        <time>2019-11-03T09:34:10.001Z</time>
      </trkpt>
      <trkpt lat="45.64875" lon="-0.10507">
        <ele>15.673</ele>
        <time>2019-11-03T09:34:43.001Z</time>
      </trkpt>
      <trkpt lat="45.64918" lon="-0.10625">
        <ele>17.832</ele>
        <time>2019-11-03T09:35:22.001Z</time>
      </trkpt>
      <trkpt lat="45.64881" lon="-0.1072">
        <ele>23.116</ele>
        <time>2019-11-03T09:35:55.001Z</time>
      </trkpt>
      <trkpt lat="45.64851" lon="-0.10887">
        <ele>23.82</ele>
        <time>2019-11-03T09:36:31.001Z</time>
      </trkpt>
      <trkpt lat="45.64893" lon="-0.10994">
        <ele>24.386</ele>
        <time>2019-11-03T09:37:04.001Z</time>
      </trkpt>
      <trkpt lat="45.64951" lon="-0.11145">
        <ele>21.698</ele>
        <time>2019-11-03T09:37:40.001Z</time>
      </trkpt>
      <trkpt lat="45.64997" lon="-0.11314">
        <ele>21.919</ele>
        <time>2019-11-03T09:38:13.001Z</time>
      </trkpt>
      <trkpt lat="45.65032" lon="-0.11486">
        <ele>23.391</ele>
        <time>2019-11-03T09:38:46.001Z</time>
      </trkpt>
      <trkpt lat="45.65179" lon="-0.11594">
        <ele>21.243</ele>
        <time>2019-11-03T09:39:22.001Z</time>
      </trkpt>
      <trkpt lat="45.65316" lon="-0.11663">
        <ele>18.836</ele>
        <time>2019-11-03T09:39:55.001Z</time>
      </trkpt>
      <trkpt lat="45.65427" lon="-0.11825">
        <ele>20.689</ele>
        <time>2019-11-03T09:40:31.001Z</time>
      </trkpt>
      <trkpt lat="45.65519" lon="-0.11974">
        <ele>21.009</ele>
        <time>2019-11-03T09:41:04.001Z</time>
      </trkpt>
      <trkpt lat="45.65637" lon="-0.12106">
        <ele>24.175</ele>
        <time>2019-11-03T09:41:40.001Z</time>
      </trkpt>
      <trkpt lat="45.65746" lon="-0.12237">
        <ele>26.098</ele>
        <time>2019-11-03T09:42:13.001Z</time>
      </trkpt>
      <trkpt lat="45.65873" lon="-0.12362">
        <ele>20.339</ele>
        <time>2019-11-03T09:42:46.001Z</time>
      </trkpt>
      <trkpt lat="45.66005" lon="-0.12374">
        <ele>14.945</ele>
        <time>2019-11-03T09:43:22.001Z</time>
      </trkpt>
      <trkpt lat="45.66129" lon="-0.12421">
        <ele>17.945</ele>
        <time>2019-11-03T09:43:55.001Z</time>
      </trkpt>
      <trkpt lat="45.66215" lon="-0.1254">
        <ele>18.684</ele>
        <time>2019-11-03T09:44:31.001Z</time>
      </trkpt>
      <trkpt lat="45.66328" lon="-0.12527">
        <ele>17.314</ele>
        <time>2019-11-03T09:45:04.001Z</time>
      </trkpt>
      <trkpt lat="45.66396" lon="-0.1269">
        <ele>16.016</ele>
        <time>2019-11-03T09:45:40.001Z</time>
      </trkpt>
      <trkpt lat="45.66451" lon="-0.12845">
        <ele>14.167</ele>
        <time>2019-11-03T09:46:13.001Z</time>
      </trkpt>
      <trkpt lat="45.66449" lon="-0.13008">
        <ele>16.854</ele>
        <time>2019-11-03T09:46:46.001Z</time>
      </trkpt>
      <trkpt lat="45.665" lon="-0.13175">
        <ele>16.228</ele>
        <time>2019-11-03T09:47:22.001Z</time>
      </trkpt>
      <trkpt lat="45.66548" lon="-0.13318">
        <ele>16.744</ele>
        <time>2019-11-03T09:47:55.001Z</time>
      </trkpt>
      <trkpt lat="45.6659" lon="-0.13475">
        <ele>17.284</ele>
        <time>2019-11-03T09:48:31.001Z</time>
      </trkpt>
      <trkpt lat="45.66627" lon="-0.13636">
        <ele>20.146</ele>
        <time>2019-11-03T09:49:04.001Z</time>
      </trkpt>
      <trkpt lat="45.66764" lon="-0.13647">
        <ele>22.125</ele>
        <time>2019-11-03T09:49:40.001Z</time>
      </trkpt>
      <trkpt lat="45.66868" lon="-0.13713">
        <ele>22.859</ele>
        <time>2019-11-03T09:50:13.001Z</time>
      </trkpt>
      <trkpt lat="45.66906" lon="-0.13951">
        <ele>13.91</ele>
        <time>2019-11-03T09:50:46.001Z</time>
      </trkpt>
      <trkpt lat="45.6694" lon="-0.14179">
        <ele>12.968</ele>
        <time>2019-11-03T09:51:22.001Z</time>
      </trkpt>
      <trkpt lat="45.66994" lon="-0.14372">
        <ele>13.66</ele>
        <time>2019-11-03T09:51:55.001Z</time>
      </trkpt>
      <trkpt lat="45.67038" lon="-0.14561">
        <ele>18.459</ele>
        <time>2019-11-03T09:52:31.001Z</time>
      </trkpt>
      <trkpt lat="45.67076" lon="-0.14731">
        <ele>17.276</ele>
        <time>2019-11-03T09:53:04.001Z</time>
      </trkpt>
      <trkpt lat="45.67052" lon="-0.14892">
        <ele>17.456</ele>
        <time>2019-11-03T09:53:40.001Z</time>
      </trkpt>
      <trkpt lat="45.67036" lon="-0.15063">
        <ele>14.41</ele>
        <time>2019-11-03T09:54:13.001Z</time>
      </trkpt>
      <trkpt lat="45.67043" lon="-0.15243">
        <ele>11.376</ele>
        <time>2019-11-03T09:54:46.001Z</time>
      </trkpt>
      <trkpt lat="45.67052" lon="-0.15447">
        <ele>12.883</ele>
        <time>2019-11-03T09:55:22.001Z</time>
      </trkpt>
      <trkpt lat="45.67064" lon="-0.15625">
        <ele>11.614</ele>
        <time>2019-11-03T09:55:55.001Z</time>
      </trkpt>
      <trkpt lat="45.67078" lon="-0.15815">
        <ele>12.922</ele>
        <time>2019-11-03T09:56:31.001Z</time>
      </trkpt>
      <trkpt lat="45.67095" lon="-0.16018">
        <ele>11.644</ele>
        <time>2019-11-03T09:57:04.001Z</time>
      </trkpt>
      <trkpt lat="45.67143" lon="-0.16247">
        <ele>9.392</ele>
        <time>2019-11-03T09:57:40.001Z</time>
      </trkpt>
      <trkpt lat="45.6716" lon="-0.16448">
        <ele>10.318</ele>
        <time>2019-11-03T09:58:13.001Z</time>
      </trkpt>
      <trkpt lat="45.67183" lon="-0.16641">
        <ele>12.088</ele>
        <time>2019-11-03T09:58:46.001Z</time>
      </trkpt>
      <trkpt lat="45.67207" lon="-0.16846">
        <ele>12.981</ele>
        <time>2019-11-03T09:59:22.001Z</time>
      </trkpt>
      <trkpt lat="45.67227" lon="-0.17016">
        <ele>10.728</ele>
        <time>2019-11-03T09:59:55.001Z</time>
      </trkpt>
      <trkpt lat="45.67251" lon="-0.17214">
        <ele>12.855</ele>
        <time>2019-11-03T10:00:31.001Z</time>
      </trkpt>
      <trkpt lat="45.67271" lon="-0.17393">
        <ele>14.913</ele>
        <time>2019-11-03T10:01:04.001Z</time>
      </trkpt>
      <trkpt lat="45.67293" lon="-0.17598">
        <ele>17.259</ele>
        <time>2019-11-03T10:01:40.001Z</time>
      </trkpt>
      <trkpt lat="45.67301" lon="-0.1779">
        <ele>12.205</ele>
        <time>2019-11-03T10:02:13.001Z</time>
      </trkpt>
      <trkpt lat="45.67189" lon="-0.17866">
        <ele>12.288</ele>
        <time>2019-11-03T10:02:49.001Z</time>
      </trkpt>
      <trkpt lat="45.67046" lon="-0.17961">
        <ele>17.49</ele>
        <time>2019-11-03T10:03:25.001Z</time>
      </trkpt>
      <trkpt lat="45.67057" lon="-0.18081">
        <ele>13.644</ele>
        <time>2019-11-03T10:03:58.001Z</time>
      </trkpt>
      <trkpt lat="45.67013" lon="-0.18288">
        <ele>12.299</ele>
        <time>2019-11-03T10:04:34.001Z</time>
      </trkpt>
      <trkpt lat="45.67006" lon="-0.1845">
        <ele>14.881</ele>
        <time>2019-11-03T10:05:07.001Z</time>
      </trkpt>
      <trkpt lat="45.67053" lon="-0.18635">
        <ele>14.68</ele>
        <time>2019-11-03T10:05:43.001Z</time>
      </trkpt>
      <trkpt lat="45.67074" lon="-0.18802">
        <ele>14.213</ele>
        <time>2019-11-03T10:06:16Z</time>
      </trkpt>
      <trkpt lat="45.671" lon="-0.18969">
        <ele>12.733</ele>
        <time>2019-11-03T10:06:49.001Z</time>
      </trkpt>
      <trkpt lat="45.67131" lon="-0.19115">
        <ele>13.821</ele>
        <time>2019-11-03T10:07:25.001Z</time>
      </trkpt>
      <trkpt lat="45.67129" lon="-0.19254">
        <ele>16.812</ele>
        <time>2019-11-03T10:07:58.001Z</time>
      </trkpt>
      <trkpt lat="45.67146" lon="-0.19399">
        <ele>20.413</ele>
        <time>2019-11-03T10:08:34.001Z</time>
      </trkpt>
      <trkpt lat="45.67187" lon="-0.19591">
        <ele>18.861</ele>
        <time>2019-11-03T10:09:07.001Z</time>
      </trkpt>
      <trkpt lat="45.67216" lon="-0.19814">
        <ele>18.671</ele>
        <time>2019-11-03T10:09:43.001Z</time>
      </trkpt>
      <trkpt lat="45.67227" lon="-0.20015">
        <ele>14.142</ele>
        <time>2019-11-03T10:10:16Z</time>
      </trkpt>
      <trkpt lat="45.67212" lon="-0.20209">
        <ele>12.496</ele>
        <time>2019-11-03T10:10:49.001Z</time>
      </trkpt>
      <trkpt lat="45.67202" lon="-0.20392">
        <ele>11.875</ele>
        <time>2019-11-03T10:11:25.001Z</time>
      </trkpt>
      <trkpt lat="45.67206" lon="-0.20569">
        <ele>13.478</ele>
        <time>2019-11-03T10:11:58.001Z</time>
      </trkpt>
      <trkpt lat="45.67245" lon="-0.20789">
        <ele>13.014</ele>
        <time>2019-11-03T10:12:34.001Z</time>
      </trkpt>
      <trkpt lat="45.67251" lon="-0.21005">
        <ele>15.3</ele>
        <time>2019-11-03T10:13:07.001Z</time>
      </trkpt>
      <trkpt lat="45.67308" lon="-0.21228">
        <ele>13.792</ele>
        <time>2019-11-03T10:13:43.001Z</time>
      </trkpt>
      <trkpt lat="45.67374" lon="-0.21398">
        <ele>11.014</ele>
        <time>2019-11-03T10:14:16Z</time>
      </trkpt>
      <trkpt lat="45.67416" lon="-0.21576">
        <ele>13.219</ele>
        <time>2019-11-03T10:14:49.001Z</time>
      </trkpt>
      <trkpt lat="45.67337" lon="-0.2173">
        <ele>11.536</ele>
        <time>2019-11-03T10:15:25.001Z</time>
      </trkpt>
      <trkpt lat="45.67363" lon="-0.21915">
        <ele>17.783</ele>
        <time>2019-11-03T10:15:58.001Z</time>
      </trkpt>
      <trkpt lat="45.67351" lon="-0.22171">
        <ele>16.828</ele>
        <time>2019-11-03T10:16:34.001Z</time>
      </trkpt>
      <trkpt lat="45.67327" lon="-0.22341">
        <ele>15.896</ele>
        <time>2019-11-03T10:17:07.001Z</time>
      </trkpt>
      <trkpt lat="45.67347" lon="-0.22366">
        <ele>18.994</ele>
        <time>2019-11-03T10:21:04.001Z</time>
      </trkpt>
      <trkpt lat="45.67424" lon="-0.22383">
        <ele>19.457</ele>
        <time>2019-11-03T10:21:40.001Z</time>
      </trkpt>
      <trkpt lat="45.67549" lon="-0.22412">
        <ele>11.688</ele>
        <time>2019-11-03T10:22:13.001Z</time>
      </trkpt>
      <trkpt lat="45.67704" lon="-0.22516">
        <ele>9.837</ele>
        <time>2019-11-03T10:22:49.001Z</time>
      </trkpt>
      <trkpt lat="45.67814" lon="-0.22624">
        <ele>16.502</ele>
        <time>2019-11-03T10:23:22.001Z</time>
      </trkpt>
      <trkpt lat="45.6794" lon="-0.22637">
        <ele>13.519</ele>
        <time>2019-11-03T10:23:58.001Z</time>
      </trkpt>
      <trkpt lat="45.67944" lon="-0.2272">
        <ele>17.626</ele>
        <time>2019-11-03T10:24:31.001Z</time>
      </trkpt>
      <trkpt lat="45.67938" lon="-0.22852">
        <ele>21.886</ele>
        <time>2019-11-03T10:25:07.001Z</time>
      </trkpt>
      <trkpt lat="45.67916" lon="-0.22968">
        <ele>27.905</ele>
        <time>2019-11-03T10:25:40.001Z</time>
      </trkpt>
      <trkpt lat="45.67869" lon="-0.23058">
        <ele>33.538</ele>
        <time>2019-11-03T10:26:22.001Z</time>
      </trkpt>
      <trkpt lat="45.67814" lon="-0.23145">
        <ele>32.319</ele>
        <time>2019-11-03T10:26:58.001Z</time>
      </trkpt>
      <trkpt lat="45.67801" lon="-0.23343">
        <ele>31.26</ele>
        <time>2019-11-03T10:27:31.001Z</time>
      </trkpt>
      <trkpt lat="45.67767" lon="-0.23609">
        <ele>25.136</ele>
        <time>2019-11-03T10:28:07.001Z</time>
      </trkpt>
      <trkpt lat="45.67702" lon="-0.23876">
        <ele>22.705</ele>
        <time>2019-11-03T10:28:40.001Z</time>
      </trkpt>
      <trkpt lat="45.67684" lon="-0.24068">
        <ele>19.104</ele>
        <time>2019-11-03T10:29:16Z</time>
      </trkpt>
      <trkpt lat="45.67695" lon="-0.24216">
        <ele>19.023</ele>
        <time>2019-11-03T10:29:49.001Z</time>
      </trkpt>
      <trkpt lat="45.67714" lon="-0.24377">
        <ele>19.535</ele>
        <time>2019-11-03T10:30:22.001Z</time>
      </trkpt>
      <trkpt lat="45.67741" lon="-0.24558">
        <ele>18.459</ele>
        <time>2019-11-03T10:30:58.001Z</time>
      </trkpt>
      <trkpt lat="45.67747" lon="-0.24766">
        <ele>20.28</ele>
        <time>2019-11-03T10:31:31.001Z</time>
      </trkpt>
      <trkpt lat="45.67802" lon="-0.24966">
        <ele>19.178</ele>
        <time>2019-11-03T10:32:07.001Z</time>
      </trkpt>
      <trkpt lat="45.67884" lon="-0.24925">
        <ele>20.597</ele>
        <time>2019-11-03T10:32:40.001Z</time>
      </trkpt>
      <trkpt lat="45.6795" lon="-0.2486">
        <ele>25.641</ele>
        <time>2019-11-03T10:33:16Z</time>
      </trkpt>
      <trkpt lat="45.6797" lon="-0.24767">
        <ele>27.923</ele>
        <time>2019-11-03T10:33:52.001Z</time>
      </trkpt>
      <trkpt lat="45.6801" lon="-0.247">
        <ele>36.306</ele>
        <time>2019-11-03T10:34:25.001Z</time>
      </trkpt>
      <trkpt lat="45.68056" lon="-0.24631">
        <ele>40.675</ele>
        <time>2019-11-03T10:35:01.001Z</time>
      </trkpt>
      <trkpt lat="45.68098" lon="-0.24549">
        <ele>50.262</ele>
        <time>2019-11-03T10:35:34.001Z</time>
      </trkpt>
      <trkpt lat="45.68116" lon="-0.2445">
        <ele>53.388</ele>
        <time>2019-11-03T10:36:13.001Z</time>
      </trkpt>
      <trkpt lat="45.68156" lon="-0.24381">
        <ele>51.608</ele>
        <time>2019-11-03T10:36:49.001Z</time>
      </trkpt>
      <trkpt lat="45.68224" lon="-0.24321">
        <ele>54.784</ele>
        <time>2019-11-03T10:37:25.001Z</time>
      </trkpt>
      <trkpt lat="45.6838" lon="-0.24278">
        <ele>47.413</ele>
        <time>2019-11-03T10:37:58.001Z</time>
      </trkpt>
      <trkpt lat="45.68481" lon="-0.24235">
        <ele>45.271</ele>
        <time>2019-11-03T10:38:31.001Z</time>
      </trkpt>
      <trkpt lat="45.6856" lon="-0.24381">
        <ele>41.153</ele>
        <time>2019-11-03T10:39:07.001Z</time>
      </trkpt>
      <trkpt lat="45.68691" lon="-0.245">
        <ele>45.242</ele>
        <time>2019-11-03T10:39:40.001Z</time>
      </trkpt>
      <trkpt lat="45.68803" lon="-0.24652">
        <ele>48</ele>
        <time>2019-11-03T10:40:16Z</time>
      </trkpt>
      <trkpt lat="45.68881" lon="-0.24759">
        <ele>46.141</ele>
        <time>2019-11-03T10:40:49.001Z</time>
      </trkpt>
      <trkpt lat="45.68961" lon="-0.24885">
        <ele>45.67</ele>
        <time>2019-11-03T10:41:25.001Z</time>
      </trkpt>
      <trkpt lat="45.69022" lon="-0.25029">
        <ele>52.225</ele>
        <time>2019-11-03T10:41:58.001Z</time>
      </trkpt>
      <trkpt lat="45.69044" lon="-0.25273">
        <ele>42.122</ele>
        <time>2019-11-03T10:42:31.001Z</time>
      </trkpt>
      <trkpt lat="45.68999" lon="-0.25497">
        <ele>43.043</ele>
        <time>2019-11-03T10:43:07.001Z</time>
      </trkpt>
      <trkpt lat="45.6902" lon="-0.25629">
        <ele>46.75</ele>
        <time>2019-11-03T10:43:40.001Z</time>
      </trkpt>
      <trkpt lat="45.69002" lon="-0.25799">
        <ele>48.873</ele>
        <time>2019-11-03T10:44:16Z</time>
      </trkpt>
      <trkpt lat="45.68962" lon="-0.25866">
        <ele>45.522</ele>
        <time>2019-11-03T10:44:49.001Z</time>
      </trkpt>
      <trkpt lat="45.68905" lon="-0.25934">
        <ele>50.917</ele>
        <time>2019-11-03T10:45:25.001Z</time>
      </trkpt>
      <trkpt lat="45.68923" lon="-0.26054">
        <ele>51.577</ele>
        <time>2019-11-03T10:45:58.001Z</time>
      </trkpt>
      <trkpt lat="45.68957" lon="-0.26253">
        <ele>51.779</ele>
        <time>2019-11-03T10:46:31.001Z</time>
      </trkpt>
      <trkpt lat="45.68949" lon="-0.26469">
        <ele>47.693</ele>
        <time>2019-11-03T10:47:07.001Z</time>
      </trkpt>
      <trkpt lat="45.68942" lon="-0.26657">
        <ele>48.461</ele>
        <time>2019-11-03T10:47:40.001Z</time>
      </trkpt>
      <trkpt lat="45.68919" lon="-0.26921">
        <ele>44.723</ele>
        <time>2019-11-03T10:48:16Z</time>
      </trkpt>
      <trkpt lat="45.68811" lon="-0.27234">
        <ele>30.434</ele>
        <time>2019-11-03T10:48:49.001Z</time>
      </trkpt>
      <trkpt lat="45.68797" lon="-0.27494">
        <ele>21.069</ele>
        <time>2019-11-03T10:49:25.001Z</time>
      </trkpt>
      <trkpt lat="45.68839" lon="-0.27675">
        <ele>26.759</ele>
        <time>2019-11-03T10:49:58.001Z</time>
      </trkpt>
      <trkpt lat="45.68861" lon="-0.27782">
        <ele>23.497</ele>
        <time>2019-11-03T10:50:31.001Z</time>
      </trkpt>
      <trkpt lat="45.68891" lon="-0.27865">
        <ele>23.735</ele>
        <time>2019-11-03T10:52:40.001Z</time>
      </trkpt>
      <trkpt lat="45.6884" lon="-0.28125">
        <ele>14.527</ele>
        <time>2019-11-03T10:53:13.001Z</time>
      </trkpt>
      <trkpt lat="45.68896" lon="-0.28239">
        <ele>20.764</ele>
        <time>2019-11-03T10:53:49.001Z</time>
      </trkpt>
      <trkpt lat="45.68979" lon="-0.28392">
        <ele>19.709</ele>
        <time>2019-11-03T10:54:22.001Z</time>
      </trkpt>
      <trkpt lat="45.69018" lon="-0.28418">
        <ele>20.612</ele>
        <time>2019-11-03T10:54:55.001Z</time>
      </trkpt>
      <trkpt lat="45.68869" lon="-0.28468">
        <ele>11.787</ele>
        <time>2019-11-03T10:55:31.001Z</time>
      </trkpt>
      <trkpt lat="45.68737" lon="-0.28594">
        <ele>7.543</ele>
        <time>2019-11-03T10:56:04.001Z</time>
      </trkpt>
      <trkpt lat="45.68617" lon="-0.28708">
        <ele>7.512</ele>
        <time>2019-11-03T10:56:43.001Z</time>
      </trkpt>
      <trkpt lat="45.68633" lon="-0.28688">
        <ele>12.489</ele>
        <time>2019-11-03T10:58:34.001Z</time>
      </trkpt>
      <trkpt lat="45.6871" lon="-0.28599">
        <ele>21.802</ele>
        <time>2019-11-03T10:59:10.001Z</time>
      </trkpt>
      <trkpt lat="45.68751" lon="-0.28534">
        <ele>21.452</ele>
        <time>2019-11-03T10:59:49.001Z</time>
      </trkpt>
      <trkpt lat="45.68793" lon="-0.28537">
        <ele>11.199</ele>
        <time>2019-11-03T11:00:25.001Z</time>
      </trkpt>
      <trkpt lat="45.68818" lon="-0.28664">
        <ele>6.326</ele>
        <time>2019-11-03T11:01:01.001Z</time>
      </trkpt>
      <trkpt lat="45.68871" lon="-0.28819">
        <ele>7.156</ele>
        <time>2019-11-03T11:01:34.001Z</time>
      </trkpt>
      <trkpt lat="45.68924" lon="-0.28982">
        <ele>9.639</ele>
        <time>2019-11-03T11:02:10.001Z</time>
      </trkpt>
      <trkpt lat="45.68979" lon="-0.29114">
        <ele>5.744</ele>
        <time>2019-11-03T11:02:43.001Z</time>
      </trkpt>
      <trkpt lat="45.69041" lon="-0.29252">
        <ele>7.234</ele>
        <time>2019-11-03T11:03:19.001Z</time>
      </trkpt>
      <trkpt lat="45.69105" lon="-0.29385">
        <ele>4.279</ele>
        <time>2019-11-03T11:03:52.001Z</time>
      </trkpt>
      <trkpt lat="45.69189" lon="-0.29509">
        <ele>5.149</ele>
        <time>2019-11-03T11:04:25.001Z</time>
      </trkpt>
      <trkpt lat="45.69262" lon="-0.29632">
        <ele>9.34</ele>
        <time>2019-11-03T11:05:01.001Z</time>
      </trkpt>
      <trkpt lat="45.69338" lon="-0.2972">
        <ele>9.856</ele>
        <time>2019-11-03T11:05:34.001Z</time>
      </trkpt>
      <trkpt lat="45.6944" lon="-0.29812">
        <ele>7.352</ele>
        <time>2019-11-03T11:06:10.001Z</time>
      </trkpt>
      <trkpt lat="45.69542" lon="-0.29881">
        <ele>8.959</ele>
        <time>2019-11-03T11:06:43.001Z</time>
      </trkpt>
      <trkpt lat="45.69647" lon="-0.29968">
        <ele>10.696</ele>
        <time>2019-11-03T11:07:19.001Z</time>
      </trkpt>
      <trkpt lat="45.69745" lon="-0.30045">
        <ele>8.423</ele>
        <time>2019-11-03T11:07:52.001Z</time>
      </trkpt>
      <trkpt lat="45.69843" lon="-0.30164">
        <ele>5.833</ele>
        <time>2019-11-03T11:08:25.001Z</time>
      </trkpt>
      <trkpt lat="45.69933" lon="-0.30312">
        <ele>6.48</ele>
        <time>2019-11-03T11:09:01.001Z</time>
      </trkpt>
      <trkpt lat="45.70035" lon="-0.30413">
        <ele>9.102</ele>
        <time>2019-11-03T11:09:34.001Z</time>
      </trkpt>
      <trkpt lat="45.70138" lon="-0.30462">
        <ele>7.578</ele>
        <time>2019-11-03T11:10:10.001Z</time>
      </trkpt>
      <trkpt lat="45.70245" lon="-0.30511">
        <ele>4.807</ele>
        <time>2019-11-03T11:10:43.001Z</time>
      </trkpt>
      <trkpt lat="45.70369" lon="-0.3057">
        <ele>5.56</ele>
        <time>2019-11-03T11:11:19.001Z</time>
      </trkpt>
      <trkpt lat="45.70452" lon="-0.30683">
        <ele>7.225</ele>
        <time>2019-11-03T11:11:52.001Z</time>
      </trkpt>
      <trkpt lat="45.70526" lon="-0.30803">
        <ele>9.53</ele>
        <time>2019-11-03T11:12:25.001Z</time>
      </trkpt>
      <trkpt lat="45.7054" lon="-0.30841">
        <ele>10.406</ele>
        <time>2019-11-03T11:13:28.001Z</time>
      </trkpt>
      <trkpt lat="45.70571" lon="-0.30892">
        <ele>11.239</ele>
        <time>2019-11-03T11:15:49.001Z</time>
      </trkpt>
      <trkpt lat="45.70648" lon="-0.31029">
        <ele>11.054</ele>
        <time>2019-11-03T11:16:25.001Z</time>
      </trkpt>
      <trkpt lat="45.7071" lon="-0.31193">
        <ele>8.829</ele>
        <time>2019-11-03T11:16:58.001Z</time>
      </trkpt>
      <trkpt lat="45.70794" lon="-0.31349">
        <ele>5.216</ele>
        <time>2019-11-03T11:17:34.001Z</time>
      </trkpt>
      <trkpt lat="45.70792" lon="-0.31437">
        <ele>6.249</ele>
        <time>2019-11-03T11:18:10.001Z</time>
      </trkpt>
      <trkpt lat="45.70747" lon="-0.3148">
        <ele>7.207</ele>
        <time>2019-11-03T11:19:22.001Z</time>
      </trkpt>
      <trkpt lat="45.70763" lon="-0.31531">
        <ele>9.659</ele>
        <time>2019-11-03T11:20:01.001Z</time>
      </trkpt>
      <trkpt lat="45.70833" lon="-0.31445">
        <ele>11.093</ele>
        <time>2019-11-03T11:20:34.001Z</time>
      </trkpt>
      <trkpt lat="45.70892" lon="-0.31468">
        <ele>9.508</ele>
        <time>2019-11-03T11:21:16Z</time>
      </trkpt>
      <trkpt lat="45.70939" lon="-0.31551">
        <ele>8.434</ele>
        <time>2019-11-03T11:22:16Z</time>
      </trkpt>
      <trkpt lat="45.70981" lon="-0.31731">
        <ele>8.794</ele>
        <time>2019-11-03T11:22:52.001Z</time>
      </trkpt>
      <trkpt lat="45.70996" lon="-0.31905">
        <ele>9.401</ele>
        <time>2019-11-03T11:23:25.001Z</time>
      </trkpt>
      <trkpt lat="45.70985" lon="-0.32084">
        <ele>9.644</ele>
        <time>2019-11-03T11:23:58.001Z</time>
      </trkpt>
      <trkpt lat="45.70957" lon="-0.32228">
        <ele>13.272</ele>
        <time>2019-11-03T11:24:34.001Z</time>
      </trkpt>
      <trkpt lat="45.70881" lon="-0.32379">
        <ele>12.862</ele>
        <time>2019-11-03T11:25:07.001Z</time>
      </trkpt>
      <trkpt lat="45.70757" lon="-0.32442">
        <ele>10.184</ele>
        <time>2019-11-03T11:25:43.001Z</time>
      </trkpt>
      <trkpt lat="45.70647" lon="-0.32445">
        <ele>10.757</ele>
        <time>2019-11-03T11:26:16Z</time>
      </trkpt>
      <trkpt lat="45.70569" lon="-0.32437">
        <ele>9.93</ele>
        <time>2019-11-03T11:27:07.001Z</time>
      </trkpt>
      <trkpt lat="45.70474" lon="-0.32477">
        <ele>9.704</ele>
        <time>2019-11-03T11:27:40.001Z</time>
      </trkpt>
      <trkpt lat="45.70376" lon="-0.32537">
        <ele>11.891</ele>
        <time>2019-11-03T11:28:13.001Z</time>
      </trkpt>
      <trkpt lat="45.70275" lon="-0.32605">
        <ele>16.898</ele>
        <time>2019-11-03T11:28:49.001Z</time>
      </trkpt>
      <trkpt lat="45.70195" lon="-0.32657">
        <ele>12.909</ele>
        <time>2019-11-03T11:29:22.001Z</time>
      </trkpt>
      <trkpt lat="45.70076" lon="-0.32742">
        <ele>8.214</ele>
        <time>2019-11-03T11:29:58.001Z</time>
      </trkpt>
      <trkpt lat="45.70019" lon="-0.32849">
        <ele>10.963</ele>
        <time>2019-11-03T11:30:31.001Z</time>
      </trkpt>
      <trkpt lat="45.69921" lon="-0.32931">
        <ele>6.591</ele>
        <time>2019-11-03T11:31:07.001Z</time>
      </trkpt>
      <trkpt lat="45.6987" lon="-0.33024">
        <ele>15.475</ele>
        <time>2019-11-03T11:31:40.001Z</time>
      </trkpt>
      <trkpt lat="45.69877" lon="-0.33018">
        <ele>13.998</ele>
        <time>2019-11-03T11:37:34.001Z</time>
      </trkpt>
      <trkpt lat="45.69848" lon="-0.33042">
        <ele>8.14</ele>
        <time>2019-11-03T11:57:40.001Z</time>
      </trkpt>
      <trkpt lat="45.69765" lon="-0.33154">
        <ele>12.46</ele>
        <time>2019-11-03T11:58:13.001Z</time>
      </trkpt>
      <trkpt lat="45.69663" lon="-0.33265">
        <ele>9.433</ele>
        <time>2019-11-03T11:58:49.001Z</time>
      </trkpt>
      <trkpt lat="45.69549" lon="-0.3334">
        <ele>9.427</ele>
        <time>2019-11-03T11:59:22.001Z</time>
      </trkpt>
      <trkpt lat="45.69426" lon="-0.33402">
        <ele>11.994</ele>
        <time>2019-11-03T11:59:58.001Z</time>
      </trkpt>
      <trkpt lat="45.69323" lon="-0.33515">
        <ele>19.66</ele>
        <time>2019-11-03T12:00:31.001Z</time>
      </trkpt>
      <trkpt lat="45.69226" lon="-0.33634">
        <ele>15.784</ele>
        <time>2019-11-03T12:01:04.001Z</time>
      </trkpt>
      <trkpt lat="45.69227" lon="-0.33648">
        <ele>10.81</ele>
        <time>2019-11-03T12:01:49.001Z</time>
      </trkpt>
      <trkpt lat="45.69185" lon="-0.33731">
        <ele>18.678</ele>
        <time>2019-11-03T12:02:25.001Z</time>
      </trkpt>
      <trkpt lat="45.6909" lon="-0.33837">
        <ele>19.701</ele>
        <time>2019-11-03T12:03:01.001Z</time>
      </trkpt>
      <trkpt lat="45.68984" lon="-0.33894">
        <ele>12.17</ele>
        <time>2019-11-03T12:03:34.001Z</time>
      </trkpt>
      <trkpt lat="45.68881" lon="-0.3394">
        <ele>13.073</ele>
        <time>2019-11-03T12:04:10.001Z</time>
      </trkpt>
      <trkpt lat="45.68816" lon="-0.33999">
        <ele>14.611</ele>
        <time>2019-11-03T12:05:04.001Z</time>
      </trkpt>
      <trkpt lat="45.68762" lon="-0.34077">
        <ele>15.124</ele>
        <time>2019-11-03T12:05:37.001Z</time>
      </trkpt>
      <trkpt lat="45.68693" lon="-0.34175">
        <ele>13.072</ele>
        <time>2019-11-03T12:06:13.001Z</time>
      </trkpt>
      <trkpt lat="45.68608" lon="-0.34257">
        <ele>16.328</ele>
        <time>2019-11-03T12:06:46.001Z</time>
      </trkpt>
      <trkpt lat="45.68535" lon="-0.34324">
        <ele>14.457</ele>
        <time>2019-11-03T12:07:22.001Z</time>
      </trkpt>
      <trkpt lat="45.68486" lon="-0.34372">
        <ele>18.55</ele>
        <time>2019-11-03T12:08:25.001Z</time>
      </trkpt>
      <trkpt lat="45.68394" lon="-0.34328">
        <ele>13.394</ele>
        <time>2019-11-03T12:09:01.001Z</time>
      </trkpt>
      <trkpt lat="45.68289" lon="-0.34206">
        <ele>11.207</ele>
        <time>2019-11-03T12:09:34.001Z</time>
      </trkpt>
      <trkpt lat="45.68213" lon="-0.34303">
        <ele>12.662</ele>
        <time>2019-11-03T12:10:07.001Z</time>
      </trkpt>
      <trkpt lat="45.6815" lon="-0.34413">
        <ele>12.864</ele>
        <time>2019-11-03T12:10:46.001Z</time>
      </trkpt>
      <trkpt lat="45.68073" lon="-0.34535">
        <ele>10.695</ele>
        <time>2019-11-03T12:11:19.001Z</time>
      </trkpt>
      <trkpt lat="45.67993" lon="-0.34677">
        <ele>11.233</ele>
        <time>2019-11-03T12:11:55.001Z</time>
      </trkpt>
      <trkpt lat="45.67919" lon="-0.3481">
        <ele>14.731</ele>
        <time>2019-11-03T12:12:28.001Z</time>
      </trkpt>
      <trkpt lat="45.67854" lon="-0.3497">
        <ele>19.401</ele>
        <time>2019-11-03T12:13:04.001Z</time>
      </trkpt>
      <trkpt lat="45.67802" lon="-0.35093">
        <ele>22.326</ele>
        <time>2019-11-03T12:13:37.001Z</time>
      </trkpt>
      <trkpt lat="45.6774" lon="-0.35254">
        <ele>15.482</ele>
        <time>2019-11-03T12:14:10.001Z</time>
      </trkpt>
      <trkpt lat="45.67683" lon="-0.35417">
        <ele>13.182</ele>
        <time>2019-11-03T12:14:46.001Z</time>
      </trkpt>
      <trkpt lat="45.67622" lon="-0.3557">
        <ele>17.783</ele>
        <time>2019-11-03T12:15:19.001Z</time>
      </trkpt>
      <trkpt lat="45.67585" lon="-0.3571">
        <ele>15.221</ele>
        <time>2019-11-03T12:15:55.001Z</time>
      </trkpt>
      <trkpt lat="45.67523" lon="-0.3589">
        <ele>15.143</ele>
        <time>2019-11-03T12:16:28.001Z</time>
      </trkpt>
      <trkpt lat="45.67501" lon="-0.36041">
        <ele>21.796</ele>
        <time>2019-11-03T12:17:07.001Z</time>
      </trkpt>
      <trkpt lat="45.67452" lon="-0.36208">
        <ele>23.198</ele>
        <time>2019-11-03T12:17:40.001Z</time>
      </trkpt>
      <trkpt lat="45.67443" lon="-0.36351">
        <ele>20.126</ele>
        <time>2019-11-03T12:18:13.001Z</time>
      </trkpt>
      <trkpt lat="45.67417" lon="-0.36486">
        <ele>13.403</ele>
        <time>2019-11-03T12:18:52.001Z</time>
      </trkpt>
      <trkpt lat="45.67394" lon="-0.36606">
        <ele>15.293</ele>
        <time>2019-11-03T12:19:25.001Z</time>
      </trkpt>
      <trkpt lat="45.6739" lon="-0.36765">
        <ele>18.044</ele>
        <time>2019-11-03T12:20:01.001Z</time>
      </trkpt>
      <trkpt lat="45.67388" lon="-0.36925">
        <ele>21.555</ele>
        <time>2019-11-03T12:20:34.001Z</time>
      </trkpt>
      <trkpt lat="45.67366" lon="-0.37083">
        <ele>24.153</ele>
        <time>2019-11-03T12:21:10.001Z</time>
      </trkpt>
      <trkpt lat="45.67365" lon="-0.37253">
        <ele>21.502</ele>
        <time>2019-11-03T12:21:43.001Z</time>
      </trkpt>
      <trkpt lat="45.67366" lon="-0.37403">
        <ele>20.85</ele>
        <time>2019-11-03T12:22:16Z</time>
      </trkpt>
      <trkpt lat="45.67363" lon="-0.37609">
        <ele>19.117</ele>
        <time>2019-11-03T12:22:52.001Z</time>
      </trkpt>
      <trkpt lat="45.67365" lon="-0.37801">
        <ele>11.566</ele>
        <time>2019-11-03T12:23:25.001Z</time>
      </trkpt>
      <trkpt lat="45.67385" lon="-0.37985">
        <ele>16.744</ele>
        <time>2019-11-03T12:24:01.001Z</time>
      </trkpt>
      <trkpt lat="45.67411" lon="-0.38163">
        <ele>12.599</ele>
        <time>2019-11-03T12:24:34.001Z</time>
      </trkpt>
      <trkpt lat="45.67443" lon="-0.38323">
        <ele>13.895</ele>
        <time>2019-11-03T12:25:10.001Z</time>
      </trkpt>
      <trkpt lat="45.67471" lon="-0.3847">
        <ele>22.256</ele>
        <time>2019-11-03T12:25:43.001Z</time>
      </trkpt>
      <trkpt lat="45.67513" lon="-0.38614">
        <ele>20.874</ele>
        <time>2019-11-03T12:26:16Z</time>
      </trkpt>
      <trkpt lat="45.67529" lon="-0.3877">
        <ele>22.24</ele>
        <time>2019-11-03T12:26:52.001Z</time>
      </trkpt>
      <trkpt lat="45.67551" lon="-0.38844">
        <ele>19.771</ele>
        <time>2019-11-03T12:28:31.001Z</time>
      </trkpt>
      <trkpt lat="45.67578" lon="-0.38963">
        <ele>22.488</ele>
        <time>2019-11-03T12:30:19.001Z</time>
      </trkpt>
      <trkpt lat="45.67611" lon="-0.39118">
        <ele>24.37</ele>
        <time>2019-11-03T12:30:52.001Z</time>
      </trkpt>
      <trkpt lat="45.67679" lon="-0.39291">
        <ele>23.671</ele>
        <time>2019-11-03T12:31:28.001Z</time>
      </trkpt>
      <trkpt lat="45.6773" lon="-0.3945">
        <ele>21.06</ele>
        <time>2019-11-03T12:32:01.001Z</time>
      </trkpt>
      <trkpt lat="45.67769" lon="-0.39606">
        <ele>19.557</ele>
        <time>2019-11-03T12:32:34.001Z</time>
      </trkpt>
      <trkpt lat="45.67676" lon="-0.39711">
        <ele>18.233</ele>
        <time>2019-11-03T12:33:10.001Z</time>
      </trkpt>
      <trkpt lat="45.67627" lon="-0.3977">
        <ele>19.214</ele>
        <time>2019-11-03T12:33:43.001Z</time>
      </trkpt>
      <trkpt lat="45.67585" lon="-0.39924">
        <ele>15.644</ele>
        <time>2019-11-03T12:34:19.001Z</time>
      </trkpt>
      <trkpt lat="45.67501" lon="-0.40071">
        <ele>19.184</ele>
        <time>2019-11-03T12:34:52.001Z</time>
      </trkpt>
      <trkpt lat="45.67428" lon="-0.40225">
        <ele>18.028</ele>
        <time>2019-11-03T12:35:28.001Z</time>
      </trkpt>
      <trkpt lat="45.67463" lon="-0.4039">
        <ele>18.52</ele>
        <time>2019-11-03T12:36:01.001Z</time>
      </trkpt>
      <trkpt lat="45.67571" lon="-0.40527">
        <ele>10.455</ele>
        <time>2019-11-03T12:36:34.001Z</time>
      </trkpt>
      <trkpt lat="45.67695" lon="-0.40641">
        <ele>6.36</ele>
        <time>2019-11-03T12:37:10.001Z</time>
      </trkpt>
      <trkpt lat="45.6781" lon="-0.40649">
        <ele>6.487</ele>
        <time>2019-11-03T12:37:43.001Z</time>
      </trkpt>
      <trkpt lat="45.67911" lon="-0.40721">
        <ele>1.823</ele>
        <time>2019-11-03T12:38:19.001Z</time>
      </trkpt>
      <trkpt lat="45.68001" lon="-0.40799">
        <ele>1.747</ele>
        <time>2019-11-03T12:38:52.001Z</time>
      </trkpt>
      <trkpt lat="45.68085" lon="-0.40915">
        <ele>5.674</ele>
        <time>2019-11-03T12:39:28.001Z</time>
      </trkpt>
      <trkpt lat="45.68154" lon="-0.41043">
        <ele>7.959</ele>
        <time>2019-11-03T12:40:01.001Z</time>
      </trkpt>
      <trkpt lat="45.6818" lon="-0.41193">
        <ele>16.185</ele>
        <time>2019-11-03T12:40:34.001Z</time>
      </trkpt>
      <trkpt lat="45.68151" lon="-0.41341">
        <ele>7.154</ele>
        <time>2019-11-03T12:41:10.001Z</time>
      </trkpt>
      <trkpt lat="45.68053" lon="-0.41433">
        <ele>10.086</ele>
        <time>2019-11-03T12:41:43.001Z</time>
      </trkpt>
      <trkpt lat="45.67931" lon="-0.41522">
        <ele>15.326</ele>
        <time>2019-11-03T12:42:19.001Z</time>
      </trkpt>
      <trkpt lat="45.678" lon="-0.41589">
        <ele>7.623</ele>
        <time>2019-11-03T12:42:52.001Z</time>
      </trkpt>
      <trkpt lat="45.67745" lon="-0.41671">
        <ele>7.306</ele>
        <time>2019-11-03T12:43:25.001Z</time>
      </trkpt>
      <trkpt lat="45.67833" lon="-0.41809">
        <ele>9.025</ele>
        <time>2019-11-03T12:44:01.001Z</time>
      </trkpt>
      <trkpt lat="45.67926" lon="-0.4183">
        <ele>12.957</ele>
        <time>2019-11-03T12:44:34.001Z</time>
      </trkpt>
      <trkpt lat="45.68027" lon="-0.4191">
        <ele>7.66</ele>
        <time>2019-11-03T12:45:10.001Z</time>
      </trkpt>
      <trkpt lat="45.68117" lon="-0.41933">
        <ele>6.616</ele>
        <time>2019-11-03T12:45:43.001Z</time>
      </trkpt>
      <trkpt lat="45.68188" lon="-0.4207">
        <ele>6.876</ele>
        <time>2019-11-03T12:46:19.001Z</time>
      </trkpt>
      <trkpt lat="45.68245" lon="-0.42197">
        <ele>3.266</ele>
        <time>2019-11-03T12:46:52.001Z</time>
      </trkpt>
      <trkpt lat="45.68251" lon="-0.42336">
        <ele>4.878</ele>
        <time>2019-11-03T12:47:25.001Z</time>
      </trkpt>
      <trkpt lat="45.68211" lon="-0.42491">
        <ele>5.467</ele>
        <time>2019-11-03T12:48:01.001Z</time>
      </trkpt>
      <trkpt lat="45.68176" lon="-0.4263">
        <ele>4.275</ele>
        <time>2019-11-03T12:48:34.001Z</time>
      </trkpt>
      <trkpt lat="45.68142" lon="-0.42793">
        <ele>9.298</ele>
        <time>2019-11-03T12:49:10.001Z</time>
      </trkpt>
      <trkpt lat="45.68126" lon="-0.42946">
        <ele>3.16</ele>
        <time>2019-11-03T12:49:43.001Z</time>
      </trkpt>
      <trkpt lat="45.68106" lon="-0.4311">
        <ele>4.937</ele>
        <time>2019-11-03T12:50:19.001Z</time>
      </trkpt>
      <trkpt lat="45.68088" lon="-0.43252">
        <ele>4.324</ele>
        <time>2019-11-03T12:50:52.001Z</time>
      </trkpt>
      <trkpt lat="45.6807" lon="-0.43388">
        <ele>5.689</ele>
        <time>2019-11-03T12:51:25.001Z</time>
      </trkpt>
      <trkpt lat="45.68048" lon="-0.43563">
        <ele>3.46</ele>
        <time>2019-11-03T12:52:01.001Z</time>
      </trkpt>
      <trkpt lat="45.68029" lon="-0.43713">
        <ele>11.041</ele>
        <time>2019-11-03T12:52:34.001Z</time>
      </trkpt>
      <trkpt lat="45.68083" lon="-0.43811">
        <ele>12.602</ele>
        <time>2019-11-03T12:53:10.001Z</time>
      </trkpt>
      <trkpt lat="45.68173" lon="-0.43881">
        <ele>9.895</ele>
        <time>2019-11-03T12:53:43.001Z</time>
      </trkpt>
      <trkpt lat="45.68163" lon="-0.44039">
        <ele>2.972</ele>
        <time>2019-11-03T12:54:19.001Z</time>
      </trkpt>
      <trkpt lat="45.68181" lon="-0.44204">
        <ele>2.712</ele>
        <time>2019-11-03T12:54:52.001Z</time>
      </trkpt>
      <trkpt lat="45.68205" lon="-0.44353">
        <ele>3.509</ele>
        <time>2019-11-03T12:55:25.001Z</time>
      </trkpt>
      <trkpt lat="45.68216" lon="-0.4452">
        <ele>2.164</ele>
        <time>2019-11-03T12:56:01.001Z</time>
      </trkpt>
      <trkpt lat="45.68224" lon="-0.44673">
        <ele>3.343</ele>
        <time>2019-11-03T12:56:34.001Z</time>
      </trkpt>
      <trkpt lat="45.68222" lon="-0.44846">
        <ele>5.939</ele>
        <time>2019-11-03T12:57:10.001Z</time>
      </trkpt>
      <trkpt lat="45.68229" lon="-0.45013">
        <ele>4.514</ele>
        <time>2019-11-03T12:57:43.001Z</time>
      </trkpt>
      <trkpt lat="45.6826" lon="-0.45168">
        <ele>4.022</ele>
        <time>2019-11-03T12:58:19.001Z</time>
      </trkpt>
      <trkpt lat="45.68288" lon="-0.45322">
        <ele>3.784</ele>
        <time>2019-11-03T12:58:52.001Z</time>
      </trkpt>
      <trkpt lat="45.68276" lon="-0.45484">
        <ele>8.349</ele>
        <time>2019-11-03T12:59:25.001Z</time>
      </trkpt>
      <trkpt lat="45.68207" lon="-0.45629">
        <ele>8.461</ele>
        <time>2019-11-03T13:00:01.001Z</time>
      </trkpt>
      <trkpt lat="45.6814" lon="-0.45729">
        <ele>9.927</ele>
        <time>2019-11-03T13:00:34.001Z</time>
      </trkpt>
      <trkpt lat="45.68005" lon="-0.45699">
        <ele>5.215</ele>
        <time>2019-11-03T13:01:10.001Z</time>
      </trkpt>
      <trkpt lat="45.67898" lon="-0.45769">
        <ele>6.316</ele>
        <time>2019-11-03T13:01:43.001Z</time>
      </trkpt>
      <trkpt lat="45.67777" lon="-0.45858">
        <ele>11.195</ele>
        <time>2019-11-03T13:02:19.001Z</time>
      </trkpt>
      <trkpt lat="45.67688" lon="-0.45987">
        <ele>4.959</ele>
        <time>2019-11-03T13:02:52.001Z</time>
      </trkpt>
      <trkpt lat="45.67584" lon="-0.45989">
        <ele>12.239</ele>
        <time>2019-11-03T13:03:25.001Z</time>
      </trkpt>
      <trkpt lat="45.6761" lon="-0.46175">
        <ele>14.132</ele>
        <time>2019-11-03T13:04:01.001Z</time>
      </trkpt>
      <trkpt lat="45.6765" lon="-0.4635">
        <ele>13.392</ele>
        <time>2019-11-03T13:04:34.001Z</time>
      </trkpt>
      <trkpt lat="45.67681" lon="-0.46525">
        <ele>8.997</ele>
        <time>2019-11-03T13:05:10.001Z</time>
      </trkpt>
      <trkpt lat="45.6758" lon="-0.46552">
        <ele>5.318</ele>
        <time>2019-11-03T13:05:43.001Z</time>
      </trkpt>
      <trkpt lat="45.67577" lon="-0.46564">
        <ele>4.409</ele>
        <time>2019-11-03T13:06:46.001Z</time>
      </trkpt>
      <trkpt lat="45.67602" lon="-0.46553">
        <ele>3.092</ele>
        <time>2019-11-03T13:14:28.001Z</time>
      </trkpt>
      <trkpt lat="45.6763" lon="-0.46553">
        <ele>6.837</ele>
        <time>2019-11-03T13:15:04.001Z</time>
      </trkpt>
      <trkpt lat="45.67681" lon="-0.46519">
        <ele>8.976</ele>
        <time>2019-11-03T13:16:04.001Z</time>
      </trkpt>
      <trkpt lat="45.67678" lon="-0.46517">
        <ele>11.194</ele>
        <time>2019-11-03T13:45:19.001Z</time>
      </trkpt>
      <trkpt lat="45.67677" lon="-0.46516">
        <ele>10.641</ele>
        <time>2019-11-03T13:46:55.001Z</time>
      </trkpt>
      <trkpt lat="45.6767" lon="-0.46505">
        <ele>22.221</ele>
        <time>2019-11-03T13:54:16Z</time>
      </trkpt>
      <trkpt lat="45.67673" lon="-0.46515">
        <ele>17.429</ele>
        <time>2019-11-03T13:56:52.001Z</time>
      </trkpt>
      <trkpt lat="45.67678" lon="-0.46518">
        <ele>9.996</ele>
        <time>2019-11-03T13:59:19.001Z</time>
      </trkpt>
      <trkpt lat="45.67643" lon="-0.46317">
        <ele>9.297</ele>
        <time>2019-11-03T14:00:10.001Z</time>
      </trkpt>
      <trkpt lat="45.67406" lon="-0.46208">
        <ele>10.606</ele>
        <time>2019-11-03T14:00:49.001Z</time>
      </trkpt>
      <trkpt lat="45.67208" lon="-0.46235">
        <ele>17.307</ele>
        <time>2019-11-03T14:01:25.001Z</time>
      </trkpt>
      <trkpt lat="45.66966" lon="-0.46377">
        <ele>13.597</ele>
        <time>2019-11-03T14:02:01.001Z</time>
      </trkpt>
      <trkpt lat="45.67171" lon="-0.47243">
        <ele>15.93</ele>
        <time>2019-11-03T14:02:34.001Z</time>
      </trkpt>
      <trkpt lat="45.67375" lon="-0.48154">
        <ele>12.862</ele>
        <time>2019-11-03T14:03:10.001Z</time>
      </trkpt>
      <trkpt lat="45.67678" lon="-0.48659">
        <ele>8.268</ele>
        <time>2019-11-03T14:03:43.001Z</time>
      </trkpt>
      <trkpt lat="45.67893" lon="-0.49309">
        <ele>17.159</ele>
        <time>2019-11-03T14:04:16Z</time>
      </trkpt>
      <trkpt lat="45.68078" lon="-0.49882">
        <ele>17.906</ele>
        <time>2019-11-03T14:04:55.001Z</time>
      </trkpt>
      <trkpt lat="45.68245" lon="-0.50612">
        <ele>8.111</ele>
        <time>2019-11-03T14:05:28.001Z</time>
      </trkpt>
      <trkpt lat="45.68485" lon="-0.51587">
        <ele>2.488</ele>
        <time>2019-11-03T14:06:04.001Z</time>
      </trkpt>
      <trkpt lat="45.68636" lon="-0.51921">
        <ele>11.288</ele>
        <time>2019-11-03T14:06:37.001Z</time>
      </trkpt>
      <trkpt lat="45.68719" lon="-0.51815">
        <ele>13.75</ele>
        <time>2019-11-03T14:07:13.001Z</time>
      </trkpt>
      <trkpt lat="45.68732" lon="-0.51865">
        <ele>12.355</ele>
        <time>2019-11-03T14:08:52.001Z</time>
      </trkpt>
      <trkpt lat="45.68742" lon="-0.51883">
        <ele>6.806</ele>
        <time>2019-11-03T14:15:15.001Z</time>
      </trkpt>
      <trkpt lat="45.68726" lon="-0.51893">
        <ele>21.301</ele>
        <time>2019-11-03T14:18:21.001Z</time>
      </trkpt>
      <trkpt lat="45.68742" lon="-0.51866">
        <ele>18.084</ele>
        <time>2019-11-03T15:05:09.001Z</time>
      </trkpt>
    </trkseg>
  </trk>
</gpx>